Broadmeadows, Australia
Current Conditions -  °F | °C
As of 5:00 AM on Sunday 26 Oct 2014 (Local Time) from YMEN Reporting Station
Overcast Overcast  
Wind Chill: 55°   Ceiling: 1700
Heat Index: 55°   Visibility: 6mi
Dew Point: 50°   Wind: 6mph
Humidity: 82%   Direction: 190°S
Pressure: 29.91"   Gusts: NA
Location:  37.68°S, 144.92°E
Report Text: YMEN 251800Z AUTO 19005KT 9999 // OVC017 13/10 Q1013
Loading
Personal Weather Stations






























Interactive Weather Map
Tropical Storm Tracking
New forecast layout! Learn more

10-Day Weather Forecast

Advertisements
Track Severe Weather on mobile